Time;durP1;ratioP1;P1;durP2;ratioP2;P2;SDS_P1;SDS_P2;PMS_P1;PMS_P2;Temp;Humidity;BMP_temperature;BMP_pressure;BME280_temperature;BME280_humidity;BME280_pressure;Samples;Min_cycle;Max_cycle;Signal;HPM_P1;HPM_P2
2022/08/09 00:00:54;;;;;;;;;;;;;;;17.62;nan;102013.97;2025248;29;19916;-72
2022/08/09 00:01:56;;;;;;;;;;;;;;;17.62;nan;102016.69;2025249;29;19915;-72
2022/08/09 00:02:57;;;;;;;;;;;;;;;17.61;nan;102012.38;2016837;29;20296;-72
2022/08/09 00:04:01;;;;;;;;;;;;;;;17.61;nan;102020.53;2017628;29;20419;-73
2022/08/09 00:05:03;;;;;;;;;;;;;;;17.60;nan;102018.91;2032798;29;19919;-71
2022/08/09 00:06:04;;;;;;;;;;;;;;;17.58;nan;102015.66;2033056;29;19922;-73
2022/08/09 00:07:06;;;;;;;;;;;;;;;17.57;nan;102008.63;2025230;29;19916;-72
2022/08/09 00:08:09;;;;;;;;;;;;;;;17.56;nan;102020.59;2025057;29;20256;-72
2022/08/09 00:09:14;;;;;;;;;;;;;;;17.56;nan;102024.13;2025145;29;19915;-73
2022/08/09 00:10:15;;;;;;;;;;;;;;;17.56;nan;102023.31;2032905;29;19921;-71
2022/08/09 00:11:20;;;;;;;;;;;;;;;17.55;nan;102010.81;2025000;29;20531;-71
2022/08/09 00:12:21;;;;;;;;;;;;;;;17.55;nan;102008.09;2024711;29;19920;-72
2022/08/09 00:13:23;;;;;;;;;;;;;;;17.55;nan;102016.25;2024999;29;19915;-70
2022/08/09 00:14:27;;;;;;;;;;;;;;;17.55;nan;102008.09;2024919;29;19915;-72
2022/08/09 00:15:29;;;;;;;;;;;;;;;17.56;nan;102012.44;2025106;29;19920;-72
2022/08/09 00:16:30;;;;;;;;;;;;;;;17.55;nan;102010.81;2028923;29;19915;-72
2022/08/09 00:17:34;;;;;;;;;;;;;;;17.56;nan;102001.56;2040701;29;19919;-73
2022/08/09 00:18:35;;;;;;;;;;;;;;;17.55;nan;102008.09;2041104;29;19918;-73
2022/08/09 00:19:36;;;;;;;;;;;;;;;17.55;nan;102006.16;2032518;29;20288;-72
2022/08/09 00:20:42;;;;;;;;;;;;;;;17.55;nan;102005.38;2025477;29;19926;-72
2022/08/09 00:21:44;;;;;;;;;;;;;;;17.55;nan;102005.38;2032416;29;19934;-71
2022/08/09 00:22:46;;;;;;;;;;;;;;;17.53;nan;102007.59;2019138;29;20295;-72
2022/08/09 00:23:49;;;;;;;;;;;;;;;17.53;nan;102002.16;2009411;29;19920;-71
2022/08/09 00:24:51;;;;;;;;;;;;;;;17.53;nan;102004.88;2017684;29;19919;-72
2022/08/09 00:25:55;;;;;;;;;;;;;;;17.52;nan;102000.50;2032596;29;19919;-72
2022/08/09 00:27:02;;;;;;;;;;;;;;;17.52;nan;102001.31;2031235;29;19926;-71
2022/08/09 00:28:06;;;;;;;;;;;;;;;17.52;nan;102006.75;2024676;29;20742;-71
2022/08/09 00:29:08;;;;;;;;;;;;;;;17.53;nan;102002.16;2024974;29;19991;-72
2022/08/09 00:30:11;;;;;;;;;;;;;;;17.53;nan;102002.16;2024584;29;20245;-73
2022/08/09 00:31:12;;;;;;;;;;;;;;;17.52;nan;102000.50;2024890;29;20331;-70
2022/08/09 00:32:16;;;;;;;;;;;;;;;17.52;nan;102000.50;2024796;29;19919;-72
2022/08/09 00:33:20;;;;;;;;;;;;;;;17.52;nan;101995.06;2017045;29;19916;-73
2022/08/09 00:34:28;;;;;;;;;;;;;;;17.52;nan;102001.31;2017726;29;19919;-71
2022/08/09 00:35:33;;;;;;;;;;;;;;;17.52;nan;102000.50;2032563;29;19919;-72
2022/08/09 00:36:36;;;;;;;;;;;;;;;17.51;nan;101996.19;2035158;29;20623;-71
2022/08/09 00:37:38;;;;;;;;;;;;;;;17.49;nan;102007.34;2040615;29;19922;-71
2022/08/09 00:38:39;;;;;;;;;;;;;;;17.49;nan;101996.44;2040379;29;19915;-71
2022/08/09 00:39:43;;;;;;;;;;;;;;;17.49;nan;102007.34;2032297;29;19915;-72
2022/08/09 00:40:44;;;;;;;;;;;;;;;17.48;nan;101997.56;2032317;29;20394;-71
2022/08/09 00:41:47;;;;;;;;;;;;;;;17.49;nan;101995.66;2032599;29;19915;-72
2022/08/09 00:42:49;;;;;;;;;;;;;;;17.50;nan;102002.72;2032399;29;20290;-72
2022/08/09 00:43:51;;;;;;;;;;;;;;;17.47;nan;101992.44;2032733;29;19926;-72
2022/08/09 00:44:55;;;;;;;;;;;;;;;17.44;nan;101999.25;2032608;29;19923;-72
2022/08/09 00:45:59;;;;;;;;;;;;;;;17.44;nan;102001.16;2032713;29;19915;-72
2022/08/09 00:47:00;;;;;;;;;;;;;;;17.42;nan;102000.63;2032679;29;19915;-71
2022/08/09 00:48:03;;;;;;;;;;;;;;;17.38;nan;102003.94;2032809;29;19929;-72
2022/08/09 00:49:07;;;;;;;;;;;;;;;17.37;nan;101999.59;2032272;29;19922;-72
2022/08/09 00:50:13;;;;;;;;;;;;;;;17.34;nan;101994.75;2032924;29;19915;-72
2022/08/09 00:51:16;;;;;;;;;;;;;;;17.33;nan;102003.16;2032603;29;19915;-71
2022/08/09 00:52:17;;;;;;;;;;;;;;;17.30;nan;101999.13;2025179;29;19915;-71
2022/08/09 00:53:22;;;;;;;;;;;;;;;17.25;nan;101998.38;2024690;29;19916;-72
2022/08/09 00:54:24;;;;;;;;;;;;;;;17.21;nan;101997.31;2030682;29;19915;-71
2022/08/09 00:55:26;;;;;;;;;;;;;;;17.18;nan;102004.16;2031627;29;19915;-71
2022/08/09 00:56:32;;;;;;;;;;;;;;;17.14;nan;102000.38;2025353;29;19922;-71
2022/08/09 00:57:36;;;;;;;;;;;;;;;17.14;nan;101995.75;2032446;29;19915;-72
2022/08/09 00:58:40;;;;;;;;;;;;;;;17.12;nan;101994.44;2032632;29;19922;-71
2022/08/09 00:59:44;;;;;;;;;;;;;;;17.12;nan;101995.25;2024847;29;20318;-70
2022/08/09 01:00:47;;;;;;;;;;;;;;;17.12;nan;102002.59;2017416;29;19916;-71
2022/08/09 01:01:53;;;;;;;;;;;;;;;17.12;nan;102002.59;2017804;29;19916;-71
2022/08/09 01:03:01;;;;;;;;;;;;;;;17.11;nan;101995.53;2031994;29;19915;-73
2022/08/09 01:04:13;;;;;;;;;;;;;;;17.11;nan;102000.94;2024552;29;19930;-72
2022/08/09 01:05:21;;;;;;;;;;;;;;;17.12;nan;101997.16;2026493;29;19915;-72
2022/08/09 01:06:41;;;;;;;;;;;;;;;17.14;nan;102000.38;2033001;29;19919;-70
2022/08/09 01:07:42;;;;;;;;;;;;;;;17.18;nan;101997.88;2040535;29;19919;-70
2022/08/09 01:09:04;;;;;;;;;;;;;;;17.21;nan;102000.03;2040263;29;19922;-71
2022/08/09 01:10:39;;;;;;;;;;;;;;;17.25;nan;102001.91;2040575;29;20341;-70
2022/08/09 01:11:59;;;;;;;;;;;;;;;17.27;nan;102005.13;2001313;29;19932;-71
2022/08/09 01:13:06;;;;;;;;;;;;;;;17.32;nan;102001.56;2034979;29;19919;-71
2022/08/09 01:14:28;;;;;;;;;;;;;;;17.33;nan;102003.97;2024868;29;20410;-71
2022/08/09 01:15:38;;;;;;;;;;;;;;;17.36;nan;101999.88;2024581;29;19978;-71
2022/08/09 01:16:47;;;;;;;;;;;;;;;17.37;nan;102004.22;2036034;29;20382;-70
2022/08/09 01:17:57;;;;;;;;;;;;;;;17.38;nan;102001.22;2048426;29;19922;-70
2022/08/09 01:19:01;;;;;;;;;;;;;;;17.41;nan;102005.25;2036708;29;19930;-72
2022/08/09 01:20:07;;;;;;;;;;;;;;;17.41;nan;102008.00;2024631;29;19929;-70
2022/08/09 01:21:17;;;;;;;;;;;;;;;17.42;nan;102006.06;2025747;29;19919;-70
2022/08/09 01:22:25;;;;;;;;;;;;;;;17.42;nan;102009.59;2033139;29;20454;-71
2022/08/09 01:23:33;;;;;;;;;;;;;;;17.42;nan;102006.88;2032574;29;19915;-71
2022/08/09 01:24:43;;;;;;;;;;;;;;;17.43;nan;102005.75;2032503;29;19915;-71
2022/08/09 01:25:56;;;;;;;;;;;;;;;17.43;nan;102005.75;2032755;29;19922;-72
2022/08/09 01:27:05;;;;;;;;;;;;;;;17.42;nan;102012.31;2032896;29;19937;-72
2022/08/09 01:28:08;;;;;;;;;;;;;;;17.44;nan;102003.88;2033304;29;19914;-71
2022/08/09 01:29:14;;;;;;;;;;;;;;;17.42;nan;102008.78;2033270;29;19926;-72
2022/08/09 01:30:16;;;;;;;;;;;;;;;17.41;nan;102004.47;2032591;29;19922;-73
2022/08/09 01:31:22;;;;;;;;;;;;;;;17.41;nan;102008.00;2032547;29;19915;-73
2022/08/09 01:32:30;;;;;;;;;;;;;;;17.41;nan;102005.25;2024797;29;20384;-73
2022/08/09 01:33:41;;;;;;;;;;;;;;;17.41;nan;102009.91;2025505;29;19915;-73
2022/08/09 01:34:46;;;;;;;;;;;;;;;17.41;nan;102004.47;2033839;29;19923;-73
2022/08/09 01:36:00;;;;;;;;;;;;;;;17.41;nan;102009.91;2033754;29;19915;-73
2022/08/09 01:37:07;;;;;;;;;;;;;;;17.38;nan;102003.94;2033814;29;19926;-73
2022/08/09 01:38:14;;;;;;;;;;;;;;;17.37;nan;102015.09;2034230;29;20260;-73
2022/08/09 01:39:18;;;;;;;;;;;;;;;17.38;nan;102005.84;2033460;29;19922;-72
2022/08/09 01:40:19;;;;;;;;;;;;;;;17.37;nan;102007.75;2025553;29;20332;-73
2022/08/09 01:41:28;;;;;;;;;;;;;;;17.35;nan;102007.22;2019127;29;19916;-71
2022/08/09 01:42:37;;;;;;;;;;;;;;;17.34;nan;102005.63;2034095;29;19914;-71
2022/08/09 01:43:46;;;;;;;;;;;;;;;17.35;nan;102009.13;2033675;29;19919;-72
2022/08/09 01:44:51;;;;;;;;;;;;;;;17.35;nan;102000.97;2018194;29;20531;-71
2022/08/09 01:45:53;;;;;;;;;;;;;;;17.35;nan;102011.84;2018209;29;19916;-73
2022/08/09 01:46:56;;;;;;;;;;;;;;;17.33;nan;102006.69;2034143;29;19915;-72
2022/08/09 01:47:59;;;;;;;;;;;;;;;17.33;nan;102003.97;2033754;29;19914;-73
2022/08/09 01:49:03;;;;;;;;;;;;;;;17.33;nan;102003.16;2033369;29;19914;-72
2022/08/09 01:50:10;;;;;;;;;;;;;;;17.32;nan;102002.38;2026093;29;20505;-72
2022/08/09 01:51:13;;;;;;;;;;;;;;;17.32;nan;101998.84;2025975;29;19915;-72
2022/08/09 01:52:16;;;;;;;;;;;;;;;17.31;nan;102002.66;2033900;29;20665;-72
2022/08/09 01:53:19;;;;;;;;;;;;;;;17.30;nan;102004.56;2033874;29;19914;-72
2022/08/09 01:54:26;;;;;;;;;;;;;;;17.29;nan;102005.66;2026579;29;19915;-71
2022/08/09 01:55:33;;;;;;;;;;;;;;;17.28;nan;102006.78;2041032;29;19915;-72
2022/08/09 01:56:36;;;;;;;;;;;;;;;17.28;nan;102001.34;2026175;29;19919;-71
2022/08/09 01:57:42;;;;;;;;;;;;;;;17.26;nan;102000.00;2019605;29;20395;-73
2022/08/09 01:58:48;;;;;;;;;;;;;;;17.27;nan;102007.03;2033250;29;19915;-73
2022/08/09 01:59:54;;;;;;;;;;;;;;;17.25;nan;101998.38;2025945;29;19915;-72
2022/08/09 02:00:57;;;;;;;;;;;;;;;17.25;nan;102001.91;2027271;29;19915;-74
2022/08/09 02:01:59;;;;;;;;;;;;;;;17.25;nan;101999.19;2033674;29;19922;-72
2022/08/09 02:03:06;;;;;;;;;;;;;;;17.25;nan;102001.09;2033594;29;19926;-72
2022/08/09 02:04:11;;;;;;;;;;;;;;;17.24;nan;102002.97;2026459;29;20312;-73
2022/08/09 02:05:14;;;;;;;;;;;;;;;17.24;nan;102002.97;2026521;29;19915;-72
2022/08/09 02:07:07;;;;;;;;;;;;;;;17.23;nan;102001.38;2025693;29;19915;-73
2022/08/09 02:07:53;;;;;;;;;;;;;;;17.21;nan;102006.28;2034187;29;19915;-72
2022/08/09 02:08:58;;;;;;;;;;;;;;;17.22;nan;102007.91;2033706;29;19915;-72
2022/08/09 02:10:02;;;;;;;;;;;;;;;17.20;nan;101999.22;2033639;29;20406;-72
2022/08/09 02:11:07;;;;;;;;;;;;;;;17.20;nan;102004.66;2040751;29;19915;-72
2022/08/09 02:12:11;;;;;;;;;;;;;;;17.20;nan;102001.94;2041091;29;20310;-72
2022/08/09 02:13:15;;;;;;;;;;;;;;;17.21;nan;102000.03;2034237;29;19918;-71
2022/08/09 02:14:21;;;;;;;;;;;;;;;17.20;nan;102004.66;2040982;29;19914;-72
2022/08/09 02:15:27;;;;;;;;;;;;;;;17.20;nan;101999.22;2039903;29;19914;-71
2022/08/09 02:16:32;;;;;;;;;;;;;;;17.19;nan;102003.06;2035047;29;20299;-71
2022/08/09 02:17:39;;;;;;;;;;;;;;;17.19;nan;102004.97;2042334;29;19914;-73
2022/08/09 02:18:44;;;;;;;;;;;;;;;17.17;nan;101999.81;2040297;29;19918;-72
2022/08/09 02:19:46;;;;;;;;;;;;;;;17.18;nan;102006.88;2021337;29;19920;-72
2022/08/09 02:20:49;;;;;;;;;;;;;;;17.18;nan;102000.59;2011061;29;19916;-74
2022/08/09 02:21:54;;;;;;;;;;;;;;;17.18;nan;102006.03;2011975;29;20391;-74
2022/08/09 02:23:10;;;;;;;;;;;;;;;17.17;nan;102007.97;2026184;29;20315;-74
2022/08/09 02:24:15;;;;;;;;;;;;;;;17.17;nan;102010.69;2026235;29;19923;-74
2022/08/09 02:25:20;;;;;;;;;;;;;;;17.15;nan;102007.47;2018952;29;19916;-74
2022/08/09 02:26:22;;;;;;;;;;;;;;;17.14;nan;102003.09;2019073;29;19915;-73
2022/08/09 02:27:28;;;;;;;;;;;;;;;17.13;nan;102006.91;2018587;29;19919;-73
2022/08/09 02:28:37;;;;;;;;;;;;;;;17.12;nan;102003.41;2012254;29;19915;-74
2022/08/09 02:29:45;;;;;;;;;;;;;;;17.13;nan;102006.91;2019895;29;19916;-75
2022/08/09 02:30:52;;;;;;;;;;;;;;;17.12;nan;102002.59;2019453;29;19916;-74
2022/08/09 02:31:57;;;;;;;;;;;;;;;17.10;nan;102007.50;2019422;29;19923;-75
2022/08/09 02:32:59;;;;;;;;;;;;;;;17.10;nan;102004.78;2018453;29;19968;-74
2022/08/09 02:34:05;;;;;;;;;;;;;;;17.10;nan;102007.50;2018710;29;19963;-72
2022/08/09 02:35:09;;;;;;;;;;;;;;;17.09;nan;102003.97;2033315;29;19922;-73
2022/08/09 02:36:21;;;;;;;;;;;;;;;17.09;nan;102009.41;2028699;29;20360;-73
2022/08/09 02:37:26;;;;;;;;;;;;;;;17.06;nan;102001.81;2034176;29;20290;-72
2022/08/09 02:38:31;;;;;;;;;;;;;;;17.07;nan;101997.19;2041674;29;19921;-71
2022/08/09 02:39:38;;;;;;;;;;;;;;;17.05;nan;102000.19;2039917;29;19914;-73
2022/08/09 02:40:41;;;;;;;;;;;;;;;17.05;nan;102005.63;2033387;29;19915;-72
2022/08/09 02:41:52;;;;;;;;;;;;;;;17.05;nan;101999.38;2033254;29;19926;-72
2022/08/09 02:42:55;;;;;;;;;;;;;;;17.04;nan;102011.34;2034205;29;19914;-72
2022/08/09 02:44:06;;;;;;;;;;;;;;;17.04;nan;102006.72;2025674;29;19916;-72
2022/08/09 02:45:14;;;;;;;;;;;;;;;17.03;nan;102009.75;2020736;29;19923;-73
2022/08/09 02:46:18;;;;;;;;;;;;;;;17.03;nan;102012.47;2033040;29;19922;-72
2022/08/09 02:47:21;;;;;;;;;;;;;;;17.04;nan;102008.63;2033947;29;20251;-71
2022/08/09 02:48:22;;;;;;;;;;;;;;;17.02;nan;102008.09;2018217;29;19932;-72
2022/08/09 02:49:24;;;;;;;;;;;;;;;17.02;nan;102008.91;2026241;29;20414;-69
2022/08/09 02:50:32;;;;;;;;;;;;;;;17.02;nan;102008.91;2034127;29;19915;-69
2022/08/09 02:51:38;;;;;;;;;;;;;;;17.02;nan;102008.91;2033392;29;20389;-72
2022/08/09 02:52:41;;;;;;;;;;;;;;;17.00;nan;102016.56;2026064;29;19934;-72
2022/08/09 02:53:49;;;;;;;;;;;;;;;16.97;nan;102016.31;2026070;29;19930;-71
2022/08/09 02:54:51;;;;;;;;;;;;;;;16.90;nan;102017.47;2016580;29;19935;-72
2022/08/09 02:55:54;;;;;;;;;;;;;;;16.87;nan;102018.03;2033585;29;19918;-72
2022/08/09 02:56:57;;;;;;;;;;;;;;;16.83;nan;102019.69;2033685;29;19914;-72
2022/08/09 02:58:03;;;;;;;;;;;;;;;16.79;nan;102023.25;2033695;29;19915;-73
2022/08/09 02:59:08;;;;;;;;;;;;;;;16.76;nan;102027.34;2025861;29;19916;-73
2022/08/09 03:00:12;;;;;;;;;;;;;;;16.73;nan;102022.47;2011239;29;19916;-72
2022/08/09 03:01:21;;;;;;;;;;;;;;;16.72;nan;102029.00;2026194;29;19915;-72
2022/08/09 03:02:26;;;;;;;;;;;;;;;16.71;nan;102030.09;2034012;29;19919;-73
2022/08/09 03:03:31;;;;;;;;;;;;;;;16.69;nan;102024.13;2033376;29;19915;-72
2022/08/09 03:04:34;;;;;;;;;;;;;;;16.67;nan;102023.59;2033071;29;20399;-70
2022/08/09 03:05:41;;;;;;;;;;;;;;;16.65;nan;102029.31;2026422;29;19916;-71
2022/08/09 03:06:46;;;;;;;;;;;;;;;16.63;nan;102023.34;2033836;29;20355;-70
2022/08/09 03:07:54;;;;;;;;;;;;;;;16.63;nan;102023.34;2032818;29;19922;-71
2022/08/09 03:09:02;;;;;;;;;;;;;;;16.64;nan;102029.59;2033806;29;19922;-70
2022/08/09 03:10:08;;;;;;;;;;;;;;;16.62;nan;102027.16;2033239;29;19993;-71
2022/08/09 03:11:12;;;;;;;;;;;;;;;16.62;nan;102021.75;2025479;29;19919;-71
2022/08/09 03:12:15;;;;;;;;;;;;;;;16.61;nan;102022.00;2033729;29;19919;-71
2022/08/09 03:13:20;;;;;;;;;;;;;;;16.62;nan;102026.38;2033131;29;20437;-70
2022/08/09 03:14:25;;;;;;;;;;;;;;;16.64;nan;102026.88;2033703;29;19919;-70
2022/08/09 03:15:28;;;;;;;;;;;;;;;16.66;nan;102021.97;2032739;29;19914;-71
2022/08/09 03:16:32;;;;;;;;;;;;;;;16.67;nan;102018.16;2028114;29;19923;-72
2022/08/09 03:17:40;;;;;;;;;;;;;;;16.66;nan;102016.53;2041196;29;19936;-71
2022/08/09 03:18:42;;;;;;;;;;;;;;;16.68;nan;102022.50;2047485;29;19930;-71
2022/08/09 03:19:47;;;;;;;;;;;;;;;16.69;nan;102021.41;2026087;29;19916;-71
2022/08/09 03:20:53;;;;;;;;;;;;;;;16.71;nan;102024.66;2025611;29;19938;-71
2022/08/09 03:22:00;;;;;;;;;;;;;;;16.72;nan;102026.28;2025163;29;19916;-71
2022/08/09 03:23:04;;;;;;;;;;;;;;;16.73;nan;102018.94;2025849;29;20406;-70
2022/08/09 03:24:10;;;;;;;;;;;;;;;16.71;nan;102019.22;2025062;29;19922;-72
2022/08/09 03:25:13;;;;;;;;;;;;;;;16.72;nan;102012.69;2033394;29;19915;-72
2022/08/09 03:26:18;;;;;;;;;;;;;;;16.73;nan;102019.75;2033116;29;19919;-72
2022/08/09 03:27:25;;;;;;;;;;;;;;;16.74;nan;102024.09;2017900;29;19916;-71
2022/08/09 03:28:27;;;;;;;;;;;;;;;16.76;nan;102018.41;2011490;29;19927;-71
2022/08/09 03:29:31;;;;;;;;;;;;;;;16.81;nan;102019.16;2025736;29;19923;-70
2022/08/09 03:30:35;;;;;;;;;;;;;;;16.89;nan;102015.03;2025586;29;20376;-70
2022/08/09 03:31:43;;;;;;;;;;;;;;;16.99;nan;102017.66;2025610;29;19919;-70
2022/08/09 03:32:44;;;;;;;;;;;;;;;17.08;nan;102018.63;2026332;29;20402;-71
2022/08/09 03:33:47;;;;;;;;;;;;;;;17.17;nan;102016.13;2025347;29;19915;-70
2022/08/09 03:34:56;;;;;;;;;;;;;;;17.23;nan;102019.59;2026011;29;19919;-72
2022/08/09 03:36:03;;;;;;;;;;;;;;;17.26;nan;102016.31;2026843;29;19920;-71
2022/08/09 03:37:05;;;;;;;;;;;;;;;17.28;nan;102023.06;2033248;29;19922;-71
2022/08/09 03:38:06;;;;;;;;;;;;;;;17.25;nan;102015.50;2025230;29;19941;-71
2022/08/09 03:39:10;;;;;;;;;;;;;;;17.22;nan;102018.78;2025679;29;19922;-72
2022/08/09 03:40:14;;;;;;;;;;;;;;;17.19;nan;102022.09;2033062;29;19918;-71
2022/08/09 03:41:15;;;;;;;;;;;;;;;17.19;nan;102019.38;2033125;29;19915;-70
2022/08/09 03:42:19;;;;;;;;;;;;;;;17.18;nan;102017.75;2032997;29;19922;-72
2022/08/09 03:43:21;;;;;;;;;;;;;;;17.17;nan;102021.56;2025774;29;19927;-70
2022/08/09 03:44:24;;;;;;;;;;;;;;;17.16;nan;102019.94;2032819;29;20675;-72
2022/08/09 03:45:28;;;;;;;;;;;;;;;17.15;nan;102026.47;2033037;29;20390;-71
2022/08/09 03:46:34;;;;;;;;;;;;;;;17.15;nan;102015.59;2025285;29;19966;-70
2022/08/09 03:47:37;;;;;;;;;;;;;;;17.14;nan;102028.38;2025943;29;19911;-71
2022/08/09 03:48:40;;;;;;;;;;;;;;;17.14;nan;102022.94;2025470;29;20414;-71
2022/08/09 03:49:42;;;;;;;;;;;;;;;17.14;nan;102027.56;2033037;29;19922;-71
2022/08/09 03:50:51;;;;;;;;;;;;;;;17.14;nan;102033.78;2033119;29;19914;-71
2022/08/09 03:51:56;;;;;;;;;;;;;;;17.14;nan;102033.00;2025247;29;19915;-70
2022/08/09 03:53:01;;;;;;;;;;;;;;;17.14;nan;102022.13;2025317;29;19915;-71
2022/08/09 03:54:08;;;;;;;;;;;;;;;17.16;nan;102027.28;2024460;29;19911;-70
2022/08/09 03:55:13;;;;;;;;;;;;;;;17.15;nan;102021.03;2025201;29;19923;-71
2022/08/09 03:56:15;;;;;;;;;;;;;;;17.14;nan;102025.66;2025315;29;19942;-72
2022/08/09 03:57:19;;;;;;;;;;;;;;;17.14;nan;102025.66;2025158;29;19916;-72
2022/08/09 03:58:20;;;;;;;;;;;;;;;17.16;nan;102027.28;2024551;29;19939;-72
2022/08/09 03:59:27;;;;;;;;;;;;;;;17.16;nan;102028.09;2025429;29;19922;-71
2022/08/09 04:00:37;;;;;;;;;;;;;;;17.17;nan;102031.63;2025460;29;19919;-71
2022/08/09 04:01:38;;;;;;;;;;;;;;;17.16;nan;102030.81;2018103;29;19911;-71
2022/08/09 04:02:43;;;;;;;;;;;;;;;17.16;nan;102032.72;2029680;29;19911;-73
2022/08/09 04:03:45;;;;;;;;;;;;;;;17.16;nan;102025.38;2040497;29;20387;-71
2022/08/09 04:04:47;;;;;;;;;;;;;;;17.17;nan;102026.97;2033088;29;19926;-71
2022/08/09 04:05:49;;;;;;;;;;;;;;;17.17;nan;102032.41;2032719;29;19922;-71
2022/08/09 04:06:51;;;;;;;;;;;;;;;17.17;nan;102023.47;2025824;29;19916;-72
2022/08/09 04:07:52;;;;;;;;;;;;;;;17.18;nan;102025.91;2025092;29;19915;-72
2022/08/09 04:08:54;;;;;;;;;;;;;;;17.19;nan;102032.16;2033274;29;19919;-71
2022/08/09 04:09:55;;;;;;;;;;;;;;;17.17;nan;102029.69;2040580;29;19915;-72
2022/08/09 04:11:04;;;;;;;;;;;;;;;17.19;nan;102034.88;2039686;29;19907;-72
2022/08/09 04:12:09;;;;;;;;;;;;;;;17.17;nan;102032.41;2025282;29;19942;-72
2022/08/09 04:13:13;;;;;;;;;;;;;;;17.16;nan;102036.25;2026036;29;19919;-72
2022/08/09 04:14:15;;;;;;;;;;;;;;;17.18;nan;102033.22;2033838;29;19919;-73
2022/08/09 04:15:19;;;;;;;;;;;;;;;17.17;nan;102032.41;2033102;29;19915;-73
2022/08/09 04:16:22;;;;;;;;;;;;;;;17.19;nan;102035.66;2034200;29;19924;-73
2022/08/09 04:17:23;;;;;;;;;;;;;;;17.19;nan;102035.66;2032853;29;19938;-72
2022/08/09 04:18:27;;;;;;;;;;;;;;;17.18;nan;102039.50;2033382;29;20447;-71
2022/08/09 04:19:28;;;;;;;;;;;;;;;17.21;nan;102038.09;2033865;29;19915;-74
2022/08/09 04:20:30;;;;;;;;;;;;;;;17.24;nan;102042.94;2024851;29;19978;-73
2022/08/09 04:21:32;;;;;;;;;;;;;;;17.27;nan;102036.94;2025718;29;19920;-72
2022/08/09 04:22:39;;;;;;;;;;;;;;;17.29;nan;102038.28;2025362;29;19922;-72
2022/08/09 04:23:40;;;;;;;;;;;;;;;17.31;nan;102038.00;2018468;29;19911;-72
2022/08/09 04:24:42;;;;;;;;;;;;;;;17.32;nan;102032.28;2017546;29;19915;-72
2022/08/09 04:25:43;;;;;;;;;;;;;;;17.36;nan;102046.09;2024649;29;19915;-73
2022/08/09 04:26:44;;;;;;;;;;;;;;;17.37;nan;102037.66;2033176;29;20421;-73
2022/08/09 04:27:48;;;;;;;;;;;;;;;17.39;nan;102037.34;2033297;29;19915;-71
2022/08/09 04:28:55;;;;;;;;;;;;;;;17.42;nan;102038.69;2033600;29;19931;-72
2022/08/09 04:30:01;;;;;;;;;;;;;;;17.44;nan;102042.75;2033931;29;19959;-73
2022/08/09 04:31:03;;;;;;;;;;;;;;;17.45;nan;102041.66;2033196;29;19922;-73
2022/08/09 04:32:07;;;;;;;;;;;;;;;17.47;nan;102041.38;2025386;29;19908;-72
2022/08/09 04:33:11;;;;;;;;;;;;;;;17.50;nan;102043.50;2017859;29;19915;-72
2022/08/09 04:34:13;;;;;;;;;;;;;;;17.54;nan;102044.53;2025265;29;19915;-73
2022/08/09 04:35:15;;;;;;;;;;;;;;;17.56;nan;102045.09;2032742;29;20314;-71
2022/08/09 04:36:17;;;;;;;;;;;;;;;17.60;nan;102046.13;2025088;29;19919;-73
2022/08/09 04:37:24;;;;;;;;;;;;;;;17.62;nan;102041.19;2017316;29;19920;-73
2022/08/09 04:38:25;;;;;;;;;;;;;;;17.63;nan;102044.72;2025307;29;19915;-73
2022/08/09 04:39:29;;;;;;;;;;;;;;;17.67;nan;102046.56;2017806;29;20059;-72
2022/08/09 04:41:04;;;;;;;;;;;;;;;17.71;nan;102047.59;2017957;29;20419;-73
2022/08/09 04:41:59;;;;;;;;;;;;;;;17.76;nan;102050.28;2026060;29;19915;-73
2022/08/09 04:43:03;;;;;;;;;;;;;;;17.75;nan;102034.25;2025324;29;19935;-73
2022/08/09 04:44:11;;;;;;;;;;;;;;;17.85;nan;102047.75;2024910;29;19921;-73
2022/08/09 04:45:15;;;;;;;;;;;;;;;17.90;nan;102055.03;2017120;29;19927;-72
2022/08/09 04:46:16;;;;;;;;;;;;;;;17.97;nan;102055.47;2009904;29;20300;-71
2022/08/09 04:47:18;;;;;;;;;;;;;;;18.01;nan;102056.53;2010683;29;19916;-72
2022/08/09 04:48:19;;;;;;;;;;;;;;;18.03;nan;102060.59;2040269;29;19929;-73
2022/08/09 04:49:21;;;;;;;;;;;;;;;18.07;nan;102060.81;2025161;29;19948;-73
2022/08/09 04:50:27;;;;;;;;;;;;;;;18.10;nan;102062.13;2018165;29;19919;-72
2022/08/09 04:51:32;;;;;;;;;;;;;;;18.13;nan;102065.09;2023150;29;19923;-71
2022/08/09 04:52:34;;;;;;;;;;;;;;;18.16;nan;102064.50;2036036;29;19925;-72
2022/08/09 04:53:35;;;;;;;;;;;;;;;18.18;nan;102061.47;2031258;29;19919;-73
2022/08/09 04:54:40;;;;;;;;;;;;;;;18.19;nan;102063.91;2026343;29;19926;-72
2022/08/09 04:55:42;;;;;;;;;;;;;;;18.21;nan;102067.13;2014020;29;19937;-72
2022/08/09 04:56:44;;;;;;;;;;;;;;;18.22;nan;102060.59;2020209;29;20407;-73
2022/08/09 04:57:46;;;;;;;;;;;;;;;18.22;nan;102055.16;2026964;29;19919;-71
2022/08/09 04:58:50;;;;;;;;;;;;;;;18.24;nan;102061.09;2026867;29;19930;-72
2022/08/09 04:59:55;;;;;;;;;;;;;;;18.27;nan;102068.69;2020786;29;20719;-72
2022/08/09 05:00:58;;;;;;;;;;;;;;;18.32;nan;102061.56;2026999;29;19922;-72
2022/08/09 05:02:01;;;;;;;;;;;;;;;18.34;nan;102067.50;2031250;29;19930;-72
2022/08/09 05:03:04;;;;;;;;;;;;;;;18.36;nan;102059.88;2035122;29;19925;-73
2022/08/09 05:04:08;;;;;;;;;;;;;;;18.38;nan;102060.38;2037256;29;19914;-72
2022/08/09 05:05:10;;;;;;;;;;;;;;;18.40;nan;102063.63;2035977;29;19926;-72
2022/08/09 05:06:15;;;;;;;;;;;;;;;18.42;nan;102064.94;2031152;29;19942;-72
2022/08/09 05:07:16;;;;;;;;;;;;;;;18.45;nan;102055.38;2033397;29;19938;-71
2022/08/09 05:08:20;;;;;;;;;;;;;;;18.46;nan;102065.97;2031612;29;20410;-72
2022/08/09 05:09:22;;;;;;;;;;;;;;;18.51;nan;102065.91;2047969;28;20388;-70
2022/08/09 05:10:26;;;;;;;;;;;;;;;18.55;nan;102068.03;2046669;29;19918;-70
2022/08/09 05:11:28;;;;;;;;;;;;;;;18.59;nan;102060.88;2048485;29;19922;-71
2022/08/09 05:12:30;;;;;;;;;;;;;;;18.62;nan;102066.53;2025138;29;19919;-71
2022/08/09 05:13:34;;;;;;;;;;;;;;;18.65;nan;102060.50;2025431;29;19926;-71
2022/08/09 05:14:41;;;;;;;;;;;;;;;18.69;nan;102055.25;2024955;29;20426;-71
2022/08/09 05:15:43;;;;;;;;;;;;;;;18.69;nan;102061.50;2024947;29;19924;-71
2022/08/09 05:16:45;;;;;;;;;;;;;;;18.69;nan;102064.25;2028928;29;20334;-72
2022/08/09 05:17:46;;;;;;;;;;;;;;;18.73;nan;102061.78;2041026;29;19926;-72
2022/08/09 05:18:48;;;;;;;;;;;;;;;18.77;nan;102067.44;2029072;29;19926;-72
2022/08/09 05:19:53;;;;;;;;;;;;;;;18.81;nan;102058.38;2033255;29;19926;-71
2022/08/09 05:20:55;;;;;;;;;;;;;;;18.87;nan;102067.28;2025067;29;19919;-73
2022/08/09 05:21:58;;;;;;;;;;;;;;;18.96;nan;102065.50;2025349;29;19915;-71
2022/08/09 05:23:04;;;;;;;;;;;;;;;19.08;nan;102057.66;2033647;29;20236;-71
2022/08/09 05:24:06;;;;;;;;;;;;;;;19.28;nan;102069.31;2040905;29;19917;-71
2022/08/09 05:25:08;;;;;;;;;;;;;;;19.47;nan;102064.56;2032814;29;20472;-70
2022/08/09 05:26:12;;;;;;;;;;;;;;;19.63;nan;102068.63;2032518;29;19926;-70
2022/08/09 05:27:15;;;;;;;;;;;;;;;19.73;nan;102066.84;2032833;29;20368;-74
2022/08/09 05:28:18;;;;;;;;;;;;;;;19.92;nan;102070.25;2032982;29;19919;-70
2022/08/09 05:29:21;;;;;;;;;;;;;;;20.08;nan;102074.31;2017973;29;20327;-71
2022/08/09 05:30:23;;;;;;;;;;;;;;;20.13;nan;102078.81;2032572;29;19930;-71
2022/08/09 05:31:28;;;;;;;;;;;;;;;20.11;nan;102079.16;2025275;29;19919;-71
2022/08/09 05:32:30;;;;;;;;;;;;;;;20.16;nan;102071.94;2025153;29;19927;-72
2022/08/09 05:33:31;;;;;;;;;;;;;;;20.31;nan;102072.41;2019894;29;19920;-72
2022/08/09 05:34:33;;;;;;;;;;;;;;;20.45;nan;102066.09;2025292;29;20368;-72
2022/08/09 05:35:40;;;;;;;;;;;;;;;20.64;nan;102071.44;2033388;29;20036;-72
2022/08/09 05:36:42;;;;;;;;;;;;;;;20.80;nan;102072.66;2040575;29;19915;-70
2022/08/09 05:37:47;;;;;;;;;;;;;;;20.97;nan;102072.81;2039890;29;19926;-69
2022/08/09 05:38:50;;;;;;;;;;;;;;;21.04;nan;102073.16;2040508;29;19915;-69
2022/08/09 05:39:53;;;;;;;;;;;;;;;21.26;nan;102074.25;2033042;29;19922;-70
2022/08/09 05:40:57;;;;;;;;;;;;;;;21.55;nan;102072.97;2024923;29;19919;-70
2022/08/09 05:42:01;;;;;;;;;;;;;;;21.92;nan;102074.38;2033713;29;19926;-70